createdAt,value
2019-01-13T00:00:41.263Z,12.47
2019-01-13T00:03:10.261Z,12.83
2019-01-13T00:05:38.860Z,12.63
2019-01-13T00:08:07.437Z,13.10
2019-01-13T00:10:35.921Z,13.37
2019-01-13T00:13:04.689Z,13.37
2019-01-13T00:15:33.165Z,13.83
2019-01-13T00:18:01.662Z,15.47
2019-01-13T00:20:30.182Z,13.93
2019-01-13T00:22:58.646Z,14.57
2019-01-13T00:25:27.166Z,14.47
2019-01-13T00:27:55.775Z,14.50
2019-01-13T00:30:24.295Z,14.50
2019-01-13T00:32:52.764Z,15.03
2019-01-13T00:35:21.273Z,15.63
2019-01-13T00:37:49.757Z,15.93
2019-01-13T00:40:20.154Z,15.33
2019-01-13T00:42:48.664Z,14.77
2019-01-13T00:45:17.455Z,14.77
2019-01-13T00:47:46.013Z,15.37
2019-01-13T00:50:16.409Z,14.57
2019-01-13T00:52:47.287Z,14.33
2019-01-13T00:55:16.770Z,16.73
2019-01-13T00:57:45.258Z,16.83
2019-01-13T01:00:26.692Z,17.90
2019-01-13T01:02:55.232Z,17.63
2019-01-13T01:05:23.725Z,16.20
2019-01-13T01:07:52.916Z,18.00
2019-01-13T01:10:21.777Z,18.90
2019-01-13T01:12:50.666Z,18.77
2019-01-13T01:15:19.346Z,19.20
2019-01-13T01:17:48.046Z,17.53
2019-01-13T01:20:17.923Z,17.60
2019-01-13T01:22:46.903Z,19.70
2019-01-13T01:25:17.172Z,18.30
2019-01-13T01:27:45.960Z,18.97
2019-01-13T01:30:16.742Z,18.93
2019-01-13T01:32:45.525Z,18.70
2019-01-13T01:35:15.546Z,20.30
2019-01-13T01:37:44.170Z,20.60
2019-01-13T01:40:15.363Z,20.77
2019-01-13T01:42:43.837Z,20.73
2019-01-13T01:45:13.901Z,21.77
2019-01-13T01:47:42.477Z,22.47
2019-01-13T01:50:12.870Z,22.63
2019-01-13T01:52:41.770Z,23.00
2019-01-13T01:55:15.457Z,23.60
2019-01-13T01:57:44.241Z,24.73
2019-01-13T02:00:18.083Z,23.27
2019-01-13T02:02:46.961Z,23.40
2019-01-13T02:05:15.451Z,23.10
2019-01-13T02:07:44.325Z,22.43
2019-01-13T02:10:18.186Z,22.37
2019-01-13T02:12:46.605Z,22.67
2019-01-13T02:15:17.886Z,21.00
2019-01-13T02:17:46.536Z,21.30
2019-01-13T02:20:18.040Z,19.93
2019-01-13T02:22:47.312Z,19.13
2019-01-13T02:25:18.933Z,19.77
2019-01-13T02:27:47.364Z,17.23
2019-01-13T02:30:21.194Z,18.10
2019-01-13T02:32:49.698Z,16.97
2019-01-13T02:35:18.388Z,17.23
2019-01-13T02:37:46.809Z,15.03
2019-01-13T02:40:17.602Z,16.97
2019-01-13T02:42:46.205Z,16.37
2019-01-13T02:45:17.524Z,16.17
2019-01-13T02:47:46.138Z,16.77
2019-01-13T02:50:14.918Z,15.73
2019-01-13T02:52:43.478Z,15.93
2019-01-13T02:55:12.108Z,15.77
2019-01-13T02:57:40.793Z,15.10
2019-01-13T03:00:15.057Z,15.07
2019-01-13T03:02:43.612Z,14.73
2019-01-13T03:05:13.525Z,14.80
2019-01-13T03:07:42.115Z,15.20
2019-01-13T03:10:13.983Z,13.20
2019-01-13T03:12:42.476Z,14.17
2019-01-13T03:15:19.658Z,14.07
2019-01-13T03:17:44.308Z,13.53
2019-01-13T03:20:14.065Z,12.83
2019-01-13T03:22:42.579Z,12.00
2019-01-13T03:25:16.005Z,12.83
2019-01-13T03:27:44.604Z,13.47
2019-01-13T03:30:18.546Z,12.93
2019-01-13T03:32:47.205Z,11.80
2019-01-13T03:35:16.458Z,13.20
2019-01-13T03:37:45.005Z,12.40
2019-01-13T03:40:15.935Z,11.70
2019-01-13T03:42:44.471Z,11.90
2019-01-13T03:45:13.166Z,12.70
2019-01-13T03:47:41.717Z,11.67
2019-01-13T03:50:15.930Z,11.87
2019-01-13T03:52:52.467Z,11.17
2019-01-13T03:55:15.802Z,10.00
2019-01-13T03:57:44.298Z,10.60
2019-01-13T04:00:21.015Z,9.03
2019-01-13T04:02:49.608Z,9.43
2019-01-13T04:05:18.173Z,9.63
2019-01-13T04:07:46.782Z,8.10
2019-01-13T04:10:17.324Z,7.27
2019-01-13T04:12:46.073Z,7.73
2019-01-13T04:15:20.497Z,7.30
2019-01-13T04:17:49.748Z,7.43
2019-01-13T04:20:18.200Z,7.80
2019-01-13T04:22:46.641Z,7.93
2019-01-13T04:25:15.065Z,7.37
2019-01-13T04:27:43.475Z,7.40
2019-01-13T04:30:13.859Z,7.10
2019-01-13T04:32:42.278Z,7.50
2019-01-13T04:35:10.991Z,7.63
2019-01-13T04:37:39.403Z,8.50
2019-01-13T04:40:09.493Z,8.80
2019-01-13T04:42:37.902Z,9.13
2019-01-13T04:45:09.282Z,8.80
2019-01-13T04:47:37.702Z,8.10
2019-01-13T04:50:11.958Z,9.77
2019-01-13T04:52:40.440Z,10.00
2019-01-13T04:55:09.241Z,9.77
2019-01-13T04:57:37.707Z,10.53
2019-01-13T05:00:20.678Z,10.40
2019-01-13T05:02:49.099Z,10.23
2019-01-13T05:05:18.011Z,10.40
2019-01-13T05:07:46.509Z,10.60
2019-01-13T05:10:20.073Z,10.27
2019-01-13T05:12:48.931Z,10.10
2019-01-13T05:15:17.522Z,10.40
2019-01-13T05:17:46.079Z,10.83
2019-01-13T05:20:16.654Z,10.53
2019-01-13T05:22:45.307Z,11.60
2019-01-13T05:25:13.960Z,11.47
2019-01-13T05:27:42.737Z,11.20
2019-01-13T05:30:16.503Z,10.80
2019-01-13T05:32:45.193Z,11.17
2019-01-13T05:35:14.040Z,10.13
2019-01-13T05:37:42.926Z,10.83
2019-01-13T05:40:14.301Z,11.07
2019-01-13T05:42:42.903Z,11.43
2019-01-13T05:45:14.161Z,12.43
2019-01-13T05:47:42.609Z,11.37
2019-01-13T05:50:13.367Z,11.20
2019-01-13T05:52:42.759Z,11.57
2019-01-13T05:55:12.579Z,10.10
2019-01-13T05:57:41.092Z,10.73
2019-01-13T06:00:18.096Z,10.17
2019-01-13T06:02:46.663Z,10.53
2019-01-13T06:05:15.418Z,11.53
2019-01-13T06:07:44.046Z,11.53
2019-01-13T06:10:17.762Z,10.07
2019-01-13T06:12:46.410Z,10.00
2019-01-13T06:15:17.693Z,9.20
2019-01-13T06:17:46.703Z,8.10
2019-01-13T06:20:17.276Z,8.40
2019-01-13T06:22:45.807Z,7.83
2019-01-13T06:25:14.454Z,8.63
2019-01-13T06:27:42.878Z,7.50
2019-01-13T06:30:16.500Z,7.67
2019-01-13T06:32:45.042Z,6.70
2019-01-13T06:35:13.719Z,6.47
2019-01-13T06:37:42.210Z,6.23
2019-01-13T06:40:13.088Z,5.83
2019-01-13T06:42:41.500Z,5.63
2019-01-13T06:45:15.143Z,6.03
2019-01-13T06:47:43.802Z,5.97
2019-01-13T06:50:14.482Z,5.67
2019-01-13T06:52:43.171Z,5.30
2019-01-13T06:55:11.945Z,5.20
2019-01-13T06:57:40.343Z,5.77
2019-01-13T07:00:18.087Z,5.60
2019-01-13T07:02:46.564Z,5.60
2019-01-13T07:05:15.258Z,5.77
2019-01-13T07:07:43.766Z,5.20
2019-01-13T07:10:12.748Z,5.00
2019-01-13T07:12:41.228Z,4.83
2019-01-13T07:15:15.209Z,5.07
2019-01-13T07:17:43.624Z,5.03
2019-01-13T07:20:14.098Z,5.57
2019-01-13T07:22:43.083Z,5.57
2019-01-13T07:25:11.505Z,5.90
2019-01-13T07:27:39.977Z,7.70
2019-01-13T07:30:16.661Z,8.07
2019-01-13T07:32:45.224Z,8.13
2019-01-13T07:35:13.877Z,7.27
2019-01-13T07:37:42.444Z,8.00
2019-01-13T07:40:16.062Z,9.30
2019-01-13T07:42:44.537Z,9.27
2019-01-13T07:45:15.305Z,10.43
2019-01-13T07:47:43.888Z,10.23
2019-01-13T07:50:14.737Z,10.50
2019-01-13T07:52:43.242Z,10.37
2019-01-13T07:55:19.691Z,10.43
2019-01-13T07:57:48.287Z,9.77
2019-01-13T08:00:24.758Z,11.60
2019-01-13T08:02:53.199Z,19.57
2019-01-13T08:05:21.620Z,13.00
2019-01-13T08:07:50.142Z,10.20
2019-01-13T08:10:18.559Z,10.53
2019-01-13T08:12:47.245Z,9.53
2019-01-13T08:15:20.337Z,10.57
2019-01-13T08:17:48.926Z,10.37
2019-01-13T08:20:20.484Z,10.57
2019-01-13T08:22:48.994Z,10.70
2019-01-13T08:25:17.611Z,11.40
2019-01-13T08:27:46.126Z,11.47
2019-01-13T08:30:16.986Z,11.87
2019-01-13T08:32:45.519Z,11.03
2019-01-13T08:35:14.340Z,11.27
2019-01-13T08:37:42.820Z,11.87
2019-01-13T08:40:14.521Z,11.70
2019-01-13T08:42:43.055Z,12.40
2019-01-13T08:45:12.396Z,12.47
2019-01-13T08:47:40.888Z,13.83
2019-01-13T08:50:13.012Z,13.10
2019-01-13T08:52:41.518Z,13.43
2019-01-13T08:55:10.313Z,13.97
2019-01-13T08:57:38.808Z,13.77
2019-01-13T09:00:16.428Z,12.40
2019-01-13T09:02:44.991Z,13.37
2019-01-13T09:05:13.613Z,13.80
2019-01-13T09:07:42.117Z,14.87
2019-01-13T09:10:13.582Z,14.43
2019-01-13T09:12:42.079Z,13.83
2019-01-13T09:15:21.786Z,12.10
2019-01-13T09:17:50.465Z,14.13
2019-01-13T09:20:21.593Z,13.63
2019-01-13T09:22:50.156Z,14.50
2019-01-13T09:25:18.674Z,15.37
2019-01-13T09:27:47.199Z,13.77
2019-01-13T09:30:18.878Z,13.27
2019-01-13T09:32:47.391Z,13.87
2019-01-13T09:35:16.288Z,14.23
2019-01-13T09:37:44.972Z,13.87
2019-01-13T09:40:19.534Z,11.90
2019-01-13T09:42:48.010Z,12.23
2019-01-13T09:45:16.786Z,13.00
2019-01-13T09:47:45.380Z,13.17
2019-01-13T09:50:16.841Z,12.80
2019-01-13T09:52:45.562Z,13.50
2019-01-13T09:55:16.531Z,12.80
2019-01-13T09:57:45.169Z,13.63
2019-01-13T10:00:19.569Z,13.10
2019-01-13T10:02:48.018Z,13.23
2019-01-13T10:05:16.772Z,12.83
2019-01-13T10:07:45.352Z,12.00
2019-01-13T10:10:14.229Z,12.60
2019-01-13T10:12:42.896Z,11.93
2019-01-13T10:15:17.373Z,11.43
2019-01-13T10:17:45.840Z,11.70
2019-01-13T10:20:15.830Z,11.60
2019-01-13T10:22:44.387Z,12.80
2019-01-13T10:25:13.440Z,11.10
2019-01-13T10:27:41.943Z,10.20
2019-01-13T10:30:32.796Z,10.57
2019-01-13T10:33:18.056Z,11.00
2019-01-13T10:35:54.010Z,10.43
2019-01-13T10:38:26.623Z,10.73
2019-01-13T10:41:00.655Z,11.73
2019-01-13T10:43:39.172Z,11.00
2019-01-13T10:46:11.111Z,11.13
2019-01-13T10:48:49.909Z,10.30
2019-01-13T10:51:18.797Z,11.50
2019-01-13T10:53:53.121Z,12.07
2019-01-13T10:56:29.071Z,11.83
2019-01-13T10:59:03.308Z,11.87
2019-01-13T11:01:32.433Z,11.33
2019-01-13T11:04:06.837Z,12.47
2019-01-13T11:06:42.393Z,10.77
2019-01-13T11:09:21.333Z,11.53
2019-01-13T11:12:00.973Z,10.27
2019-01-13T11:14:38.751Z,10.47
2019-01-13T11:17:06.854Z,11.13
2019-01-13T11:19:40.901Z,10.80
2019-01-13T11:22:14.843Z,9.30
2019-01-13T11:24:53.216Z,9.80
2019-01-13T11:27:26.079Z,8.83
2019-01-13T11:29:59.191Z,8.97
2019-01-13T11:32:29.237Z,8.63
2019-01-13T11:34:59.382Z,8.17
2019-01-13T11:37:45.356Z,8.20
2019-01-13T11:40:21.570Z,8.03
2019-01-13T11:42:50.263Z,6.77
2019-01-13T11:45:18.960Z,7.83
2019-01-13T11:47:47.680Z,7.87
2019-01-13T11:50:18.385Z,7.10
2019-01-13T11:52:46.944Z,8.07
2019-01-13T11:55:17.415Z,7.47
2019-01-13T11:57:46.244Z,6.33
2019-01-13T12:00:26.111Z,5.10
2019-01-13T12:02:54.750Z,5.53
2019-01-13T12:05:23.309Z,5.73
2019-01-13T12:07:52.258Z,5.00
2019-01-13T12:10:21.412Z,5.33
2019-01-13T12:12:50.176Z,5.03
2019-01-13T12:15:22.407Z,6.10
2019-01-13T12:17:51.108Z,5.30
2019-01-13T12:20:21.756Z,5.30
2019-01-13T12:22:50.646Z,25.90
2019-01-13T12:25:20.850Z,38.67
2019-01-13T12:27:49.654Z,13.47
2019-01-13T12:30:23.678Z,7.30
2019-01-13T12:32:52.209Z,7.40
2019-01-13T12:35:21.910Z,7.67
2019-01-13T12:37:50.597Z,7.60
2019-01-13T12:40:21.285Z,8.37
2019-01-13T12:42:49.872Z,7.63
2019-01-13T12:45:20.360Z,7.77
2019-01-13T12:47:49.369Z,7.83
2019-01-13T12:50:20.341Z,8.60
2019-01-13T12:52:48.917Z,7.97
2019-01-13T12:55:17.518Z,9.10
2019-01-13T12:57:46.474Z,9.30
2019-01-13T13:00:17.424Z,8.63
2019-01-13T13:02:46.186Z,9.00
2019-01-13T13:05:15.684Z,8.47
2019-01-13T13:07:45.530Z,8.90
2019-01-13T13:10:28.879Z,8.60
2019-01-13T13:12:57.267Z,8.37
2019-01-13T13:15:25.783Z,8.33
2019-01-13T13:17:54.217Z,7.40
2019-01-13T13:20:22.824Z,7.93
2019-01-13T13:22:51.483Z,7.47
2019-01-13T13:25:19.959Z,6.43
2019-01-13T13:27:48.437Z,7.43
2019-01-13T13:30:21.872Z,7.53
2019-01-13T13:32:50.987Z,7.37
2019-01-13T13:35:19.633Z,6.77
2019-01-13T13:37:48.203Z,6.23
2019-01-13T13:40:22.805Z,6.17
2019-01-13T13:42:51.351Z,6.47
2019-01-13T13:45:19.900Z,5.57
2019-01-13T13:47:49.323Z,6.23
2019-01-13T13:50:20.262Z,6.37
2019-01-13T13:52:48.909Z,6.07
2019-01-13T13:55:17.550Z,5.83
2019-01-13T13:57:46.054Z,6.30
2019-01-13T14:00:23.115Z,6.00
2019-01-13T14:02:51.635Z,6.67
2019-01-13T14:05:20.401Z,5.60
2019-01-13T14:07:49.697Z,5.93
2019-01-13T14:10:29.963Z,5.73
2019-01-13T14:12:58.689Z,6.67
2019-01-13T14:15:27.176Z,6.20
2019-01-13T14:17:55.814Z,6.83
2019-01-13T14:20:24.360Z,6.70
2019-01-13T14:22:52.875Z,5.90
2019-01-13T14:25:21.435Z,6.40
2019-01-13T14:27:50.046Z,6.47
2019-01-13T14:30:23.754Z,36.57
2019-01-13T14:32:52.453Z,12.30
2019-01-13T14:35:21.023Z,12.50
2019-01-13T14:37:49.878Z,8.03
2019-01-13T14:40:20.555Z,7.40
2019-01-13T14:42:49.107Z,6.83
2019-01-13T14:45:19.813Z,6.73
2019-01-13T14:47:48.391Z,5.87
2019-01-13T14:50:19.461Z,5.83
2019-01-13T14:52:48.464Z,6.63
2019-01-13T14:55:18.619Z,6.20
2019-01-13T14:57:47.704Z,7.00
2019-01-13T15:00:18.988Z,6.30
2019-01-13T15:02:47.618Z,6.63
2019-01-13T15:05:16.211Z,7.20
2019-01-13T15:07:44.766Z,6.37
2019-01-13T15:10:18.481Z,6.83
2019-01-13T15:12:46.970Z,6.90
2019-01-13T15:15:16.363Z,6.37
2019-01-13T15:17:45.055Z,7.43
2019-01-13T15:20:16.115Z,7.23
2019-01-13T15:22:45.119Z,7.33
2019-01-13T15:25:16.584Z,5.97
2019-01-13T15:27:45.236Z,6.33
2019-01-13T15:30:22.759Z,7.00
2019-01-13T15:32:51.208Z,5.97
2019-01-13T15:35:19.762Z,6.43
2019-01-13T15:37:48.388Z,7.40
2019-01-13T15:40:19.037Z,6.70
2019-01-13T15:42:47.840Z,6.70
2019-01-13T15:45:16.796Z,6.47
2019-01-13T15:47:45.770Z,6.50
2019-01-13T15:50:19.524Z,6.93
2019-01-13T15:52:48.474Z,6.50
2019-01-13T15:55:17.888Z,6.23
2019-01-13T15:57:46.403Z,6.00
2019-01-13T16:00:22.722Z,5.90
2019-01-13T16:02:51.294Z,5.30
2019-01-13T16:05:19.961Z,5.73
2019-01-13T16:07:48.445Z,6.00
2019-01-13T16:10:19.156Z,5.57
2019-01-13T16:12:47.761Z,5.97
2019-01-13T16:15:16.338Z,5.57
2019-01-13T16:17:44.990Z,5.27
2019-01-13T16:20:16.457Z,6.33
2019-01-13T16:22:45.023Z,5.47
2019-01-13T16:25:13.614Z,5.97
2019-01-13T16:27:42.116Z,5.13
2019-01-13T16:30:13.978Z,5.50
2019-01-13T16:32:42.379Z,5.50
2019-01-13T16:35:11.279Z,6.50
2019-01-13T16:37:39.852Z,5.30
2019-01-13T16:40:11.343Z,4.83
2019-01-13T16:42:39.826Z,5.40
2019-01-13T16:45:10.829Z,6.03
2019-01-13T16:47:39.407Z,4.83
2019-01-13T16:50:19.894Z,4.70
2019-01-13T16:52:50.785Z,8.20
2019-01-13T16:55:19.933Z,3.93
2019-01-13T16:57:48.459Z,4.83
2019-01-13T17:00:24.828Z,5.43
2019-01-13T17:02:53.404Z,5.40
2019-01-13T17:05:22.915Z,5.43
2019-01-13T17:07:51.400Z,4.77
2019-01-13T17:10:24.796Z,4.50
2019-01-13T17:12:53.551Z,5.13
2019-01-13T17:15:27.766Z,6.43
2019-01-13T17:17:56.209Z,4.63
2019-01-13T17:20:24.772Z,4.47
2019-01-13T17:22:53.488Z,4.40
2019-01-13T17:31:22.099Z,5.97
2019-01-13T17:37:11.925Z,4.57
2019-01-13T17:40:45.110Z,3.77
2019-01-13T17:42:37.368Z,3.63
2019-01-13T17:45:03.337Z,3.80
2019-01-13T17:50:29.749Z,2.30
2019-01-13T17:53:15.878Z,4.47
2019-01-13T17:55:47.889Z,4.30
2019-01-13T17:58:21.412Z,3.40
2019-01-13T18:01:15.468Z,3.90
2019-01-13T18:03:54.422Z,3.10
2019-01-13T18:06:33.361Z,4.07
2019-01-13T18:09:07.056Z,7.13
2019-01-13T18:11:41.464Z,7.53
2019-01-13T18:14:14.375Z,4.13
2019-01-13T18:16:46.785Z,4.90
2019-01-13T18:19:21.602Z,4.23
2019-01-13T18:21:56.111Z,4.17
2019-01-13T18:24:26.506Z,5.53
2019-01-13T18:27:15.553Z,3.30
2019-01-13T18:29:49.895Z,3.90
2019-01-13T18:32:32.450Z,4.27
2019-01-13T18:34:56.708Z,3.03
2019-01-13T18:37:25.144Z,3.20
2019-01-13T18:39:53.741Z,3.60
2019-01-13T18:42:22.411Z,3.77
2019-01-13T18:44:50.979Z,3.60
2019-01-13T18:47:19.417Z,3.23
2019-01-13T18:49:47.881Z,3.10
2019-01-13T18:52:16.303Z,3.03
2019-01-13T18:54:44.901Z,3.67
2019-01-13T18:57:13.383Z,2.33
2019-01-13T18:59:41.842Z,3.10
2019-01-13T19:02:10.756Z,2.80
2019-01-13T19:04:39.162Z,2.87
2019-01-13T19:07:07.637Z,2.63
2019-01-13T19:09:36.113Z,2.80
2019-01-13T19:12:04.833Z,3.20
2019-01-13T19:14:33.326Z,3.13
2019-01-13T19:17:02.018Z,3.00
2019-01-13T19:19:31.594Z,3.17
2019-01-13T19:22:00.317Z,1.80
2019-01-13T19:24:28.744Z,1.60
2019-01-13T19:26:57.317Z,1.70
2019-01-13T19:29:25.742Z,1.50
2019-01-13T19:31:54.246Z,1.60
2019-01-13T19:34:22.886Z,2.20
2019-01-13T19:36:51.483Z,2.00
2019-01-13T19:39:19.981Z,2.23
2019-01-13T19:41:48.469Z,2.47
2019-01-13T19:44:17.075Z,3.60
2019-01-13T19:46:45.676Z,2.87
2019-01-13T19:49:14.265Z,2.30
2019-01-13T19:51:42.773Z,2.10
2019-01-13T19:54:11.331Z,2.60
2019-01-13T19:56:39.847Z,2.80
2019-01-13T19:59:08.404Z,2.90
2019-01-13T20:01:36.855Z,3.63
2019-01-13T20:04:05.496Z,3.13
2019-01-13T20:06:34.041Z,3.30
2019-01-13T20:09:04.309Z,2.87
2019-01-13T20:11:32.897Z,3.33
2019-01-13T20:14:01.520Z,3.37
2019-01-13T20:16:30.088Z,3.27
2019-01-13T20:18:58.611Z,3.87
2019-01-13T20:21:27.127Z,3.67
2019-01-13T20:23:55.745Z,3.37
2019-01-13T20:26:24.430Z,3.47
2019-01-13T20:28:53.025Z,3.53
2019-01-13T20:31:21.649Z,4.20
2019-01-13T20:33:50.113Z,3.40
2019-01-13T20:36:18.620Z,2.97
2019-01-13T20:38:47.033Z,2.97
2019-01-13T20:41:15.644Z,2.97
2019-01-13T20:43:44.144Z,3.43
2019-01-13T20:46:12.768Z,3.77
2019-01-13T20:48:41.295Z,3.70
2019-01-13T20:51:09.857Z,3.77
2019-01-13T20:53:38.302Z,3.40
2019-01-13T20:56:06.899Z,3.33
2019-01-13T20:58:35.367Z,50.57
2019-01-13T21:01:04.558Z,6.43
2019-01-13T21:03:33.071Z,13.07
2019-01-13T21:06:01.748Z,3.50
2019-01-13T21:08:30.223Z,4.03
2019-01-13T21:10:58.776Z,3.77
2019-01-13T21:13:27.721Z,3.83
2019-01-13T21:15:56.711Z,3.43
2019-01-13T21:18:25.177Z,4.13
2019-01-13T21:20:53.712Z,4.00
2019-01-13T21:23:22.226Z,3.87
2019-01-13T21:25:50.896Z,3.20
2019-01-13T21:28:19.495Z,3.90
2019-01-13T21:30:47.933Z,4.10
2019-01-13T21:33:16.468Z,4.63
2019-01-13T21:35:44.987Z,3.20
2019-01-13T21:38:13.453Z,3.23
2019-01-13T21:40:41.845Z,3.00
2019-01-13T21:43:10.398Z,3.77
2019-01-13T21:45:38.976Z,3.57
2019-01-13T21:48:07.492Z,4.93
2019-01-13T21:50:35.989Z,4.20
2019-01-13T21:53:04.604Z,4.23
2019-01-13T21:55:33.121Z,4.03
2019-01-13T21:58:01.637Z,4.10
2019-01-13T22:00:30.615Z,5.13
2019-01-13T22:02:59.200Z,3.57
2019-01-13T22:05:27.607Z,3.47
2019-01-13T22:07:56.082Z,4.20
2019-01-13T22:10:25.168Z,2.93
2019-01-13T22:12:54.044Z,3.50
2019-01-13T22:15:23.550Z,3.97
2019-01-13T22:17:51.942Z,2.90
2019-01-13T22:20:22.611Z,2.73
2019-01-13T22:22:51.878Z,2.80
2019-01-13T22:25:20.495Z,2.33
2019-01-13T22:27:49.354Z,3.00
2019-01-13T22:30:19.748Z,3.00
2019-01-13T22:32:48.388Z,3.17
2019-01-13T22:35:16.951Z,3.60
2019-01-13T22:37:45.502Z,4.87
2019-01-13T22:40:15.786Z,4.23
2019-01-13T22:42:44.575Z,4.30
2019-01-13T22:45:15.683Z,3.67
2019-01-13T22:47:44.426Z,4.30
2019-01-13T22:50:15.252Z,4.07
2019-01-13T22:52:43.891Z,4.40
2019-01-13T22:55:12.734Z,4.07
2019-01-13T22:57:41.161Z,4.20
2019-01-13T23:00:35.627Z,4.87
2019-01-13T23:03:04.120Z,3.43
2019-01-13T23:05:32.534Z,3.97
2019-01-13T23:08:00.975Z,4.33
2019-01-13T23:10:29.662Z,4.10
2019-01-13T23:12:58.105Z,4.23
2019-01-13T23:15:26.706Z,3.97
2019-01-13T23:17:55.158Z,4.30
2019-01-13T23:20:23.645Z,3.90
2019-01-13T23:22:52.264Z,4.10
2019-01-13T23:25:20.796Z,4.90
2019-01-13T23:27:49.315Z,3.93
2019-01-13T23:30:17.868Z,5.00
2019-01-13T23:32:46.305Z,4.47
2019-01-13T23:35:14.797Z,4.37
2019-01-13T23:37:43.304Z,4.30
2019-01-13T23:40:12.065Z,3.90
2019-01-13T23:42:40.651Z,4.43
2019-01-13T23:45:09.398Z,4.13
2019-01-13T23:47:40.606Z,4.57
2019-01-13T23:50:09.345Z,4.50
2019-01-13T23:52:37.762Z,4.50
2019-01-13T23:55:06.958Z,4.13
2019-01-13T23:57:35.490Z,4.40
